createdAt,value
2023-05-12T00:00:50.480Z,4.93
2023-05-12T00:03:19.181Z,5.27
2023-05-12T00:05:47.754Z,4.90
2023-05-12T00:08:17.703Z,5.57
2023-05-12T00:10:46.293Z,4.70
2023-05-12T00:13:15.425Z,4.47
2023-05-12T00:15:44.218Z,5.27
2023-05-12T00:18:12.707Z,5.00
2023-05-12T00:20:41.210Z,4.67
2023-05-12T00:23:09.712Z,5.07
2023-05-12T00:25:39.572Z,4.73
2023-05-12T00:28:08.063Z,4.80
2023-05-12T00:30:36.694Z,5.23
2023-05-12T00:33:05.842Z,4.93
2023-05-12T00:35:34.460Z,4.97
2023-05-12T00:38:02.979Z,4.47
2023-05-12T00:40:31.804Z,5.13
2023-05-12T00:43:01.799Z,4.77
2023-05-12T00:45:30.476Z,5.20
2023-05-12T00:47:59.537Z,4.80
2023-05-12T00:50:28.924Z,4.83
2023-05-12T00:52:58.602Z,4.87
2023-05-12T00:55:27.777Z,4.93
2023-05-12T00:57:56.862Z,5.00
2023-05-12T01:00:26.861Z,4.80
2023-05-12T01:02:58.468Z,4.10
2023-05-12T01:05:34.345Z,4.97
2023-05-12T01:08:04.381Z,4.67
2023-05-12T01:10:33.405Z,5.20
2023-05-12T01:13:02.149Z,4.70
2023-05-12T01:15:34.051Z,4.27
2023-05-12T01:18:06.128Z,4.87
2023-05-12T01:20:35.970Z,4.60
2023-05-12T01:23:05.371Z,4.53
2023-05-12T01:25:35.332Z,4.70
2023-05-12T01:28:06.625Z,4.07
2023-05-12T01:30:37.745Z,4.60
2023-05-12T01:33:06.400Z,4.37
2023-05-12T01:35:35.352Z,4.60
2023-05-12T01:38:04.313Z,4.70
2023-05-12T01:40:36.403Z,4.10
2023-05-12T01:43:06.688Z,4.77
2023-05-12T01:45:35.328Z,4.57
2023-05-12T01:48:04.694Z,4.53
2023-05-12T01:50:33.371Z,4.30
2023-05-12T01:53:03.863Z,4.07
2023-05-12T01:55:34.486Z,4.67
2023-05-12T01:58:03.988Z,5.40
2023-05-12T02:00:35.074Z,5.80
2023-05-12T02:03:04.719Z,4.53
2023-05-12T02:05:33.395Z,4.33
2023-05-12T02:08:04.378Z,3.90
2023-05-12T02:10:32.972Z,3.70
2023-05-12T02:13:01.624Z,4.30
2023-05-12T02:15:34.479Z,4.00
2023-05-12T02:18:04.468Z,3.90
2023-05-12T02:20:33.017Z,3.57
2023-05-12T02:23:03.123Z,3.87
2023-05-12T02:25:32.819Z,3.87
2023-05-12T02:28:01.382Z,3.50
2023-05-12T02:30:29.906Z,3.30
2023-05-12T02:32:59.959Z,3.00
2023-05-12T02:35:28.563Z,3.77
2023-05-12T02:37:57.188Z,2.90
2023-05-12T02:40:26.059Z,2.70
2023-05-12T02:42:54.536Z,3.40
2023-05-12T02:45:23.152Z,4.10
2023-05-12T02:47:52.030Z,3.50
2023-05-12T02:50:22.360Z,3.90
2023-05-12T02:52:51.777Z,4.00
2023-05-12T02:55:20.452Z,4.27
2023-05-12T02:57:49.428Z,4.17
2023-05-12T03:00:18.505Z,4.40
2023-05-12T03:02:47.291Z,4.27
2023-05-12T03:05:15.973Z,4.03
2023-05-12T03:07:45.934Z,5.00
2023-05-12T03:10:14.615Z,4.80
2023-05-12T03:12:43.224Z,4.70
2023-05-12T03:15:12.436Z,4.73
2023-05-12T03:17:41.261Z,4.93
2023-05-12T03:20:10.248Z,5.43
2023-05-12T03:22:39.403Z,5.53
2023-05-12T03:25:11.264Z,5.00
2023-05-12T03:27:39.858Z,5.17
2023-05-12T03:30:10.215Z,5.93
2023-05-12T03:32:40.162Z,7.13
2023-05-12T03:35:11.330Z,6.93
2023-05-12T03:37:39.993Z,6.97
2023-05-12T03:40:12.503Z,7.63
2023-05-12T03:42:41.060Z,7.77
2023-05-12T03:45:11.276Z,8.13
2023-05-12T03:47:41.134Z,8.47
2023-05-12T03:50:10.986Z,8.63
2023-05-12T03:52:41.265Z,8.87
2023-05-12T03:55:11.499Z,9.13
2023-05-12T03:57:40.054Z,9.23
2023-05-12T04:00:09.896Z,9.07
2023-05-12T04:02:41.438Z,11.20
2023-05-12T04:05:11.509Z,10.30
2023-05-12T04:07:40.028Z,10.60
2023-05-12T04:10:11.607Z,9.63
2023-05-12T04:12:40.279Z,9.93
2023-05-12T04:15:10.755Z,10.00
2023-05-12T04:17:39.293Z,11.73
2023-05-12T04:20:09.154Z,10.63
2023-05-12T04:22:37.709Z,12.17
2023-05-12T04:25:07.508Z,11.33
2023-05-12T04:27:37.554Z,11.33
2023-05-12T04:30:07.499Z,11.93
2023-05-12T04:32:38.664Z,11.60
2023-05-12T04:35:08.756Z,12.83
2023-05-12T04:37:37.788Z,12.97
2023-05-12T04:40:08.246Z,12.53
2023-05-12T04:42:39.121Z,13.83
2023-05-12T04:45:10.571Z,14.10
2023-05-12T04:47:39.309Z,13.60
2023-05-12T04:50:10.599Z,13.03
2023-05-12T04:52:39.418Z,13.67
2023-05-12T04:55:08.770Z,13.93
2023-05-12T04:57:41.317Z,13.70
2023-05-12T05:00:12.909Z,12.90
2023-05-12T05:02:42.171Z,14.87
2023-05-12T05:05:11.819Z,15.40
2023-05-12T05:07:40.407Z,14.97
2023-05-12T05:10:10.666Z,14.03
2023-05-12T05:12:42.071Z,14.50
2023-05-12T05:15:12.080Z,15.10
2023-05-12T05:17:43.061Z,15.23
2023-05-12T05:20:15.246Z,15.17
2023-05-12T05:22:44.665Z,15.83
2023-05-12T05:25:14.167Z,14.57
2023-05-12T05:27:44.080Z,15.67
2023-05-12T05:30:13.083Z,15.53
2023-05-12T05:32:43.118Z,14.53
2023-05-12T05:35:11.894Z,16.47
2023-05-12T05:37:45.864Z,16.23
2023-05-12T05:40:14.530Z,15.03
2023-05-12T05:42:44.623Z,16.50
2023-05-12T05:45:13.308Z,14.53
2023-05-12T05:47:42.656Z,14.93
2023-05-12T05:50:12.219Z,17.23
2023-05-12T05:52:43.019Z,16.63
2023-05-12T05:55:11.686Z,15.93
2023-05-12T05:57:40.518Z,15.93
2023-05-12T06:00:12.492Z,16.20
2023-05-12T06:02:47.171Z,16.27
2023-05-12T06:05:19.765Z,15.83
2023-05-12T06:07:48.508Z,16.53
2023-05-12T06:10:17.235Z,17.73
2023-05-12T06:12:45.936Z,16.20
2023-05-12T06:15:15.789Z,15.90
2023-05-12T06:17:44.399Z,16.17
2023-05-12T06:20:14.156Z,15.73
2023-05-12T06:22:44.268Z,15.93
2023-05-12T06:25:12.902Z,15.80
2023-05-12T06:27:41.536Z,14.63
2023-05-12T06:30:12.988Z,14.40
2023-05-12T06:32:44.292Z,17.37
2023-05-12T06:35:12.967Z,15.90
2023-05-12T06:37:41.486Z,15.67
2023-05-12T06:40:10.702Z,14.83
2023-05-12T06:42:39.259Z,15.77
2023-05-12T06:45:13.051Z,15.23
2023-05-12T06:47:41.687Z,14.90
2023-05-12T06:50:12.289Z,15.13
2023-05-12T06:52:40.941Z,15.17
2023-05-12T06:55:10.100Z,16.03
2023-05-12T06:57:38.739Z,14.83
2023-05-12T07:00:08.558Z,14.97
2023-05-12T07:02:37.115Z,15.67
2023-05-12T07:05:06.341Z,14.67
2023-05-12T07:07:36.651Z,14.17
2023-05-12T07:10:06.434Z,14.77
2023-05-12T07:12:35.135Z,14.10
2023-05-12T07:15:04.569Z,14.93
2023-05-12T07:17:33.185Z,15.83
2023-05-12T07:20:01.819Z,15.33
2023-05-12T07:22:32.312Z,14.33
2023-05-12T07:25:02.334Z,12.67
2023-05-12T07:27:30.946Z,13.17
2023-05-12T07:29:59.655Z,14.17
2023-05-12T07:32:28.261Z,12.90
2023-05-12T07:34:56.811Z,13.47
2023-05-12T07:37:25.810Z,11.93
2023-05-12T07:39:54.487Z,12.63
2023-05-12T07:42:24.592Z,11.70
2023-05-12T07:44:53.196Z,12.13
2023-05-12T07:47:21.831Z,10.80
2023-05-12T07:49:50.377Z,11.63
2023-05-12T07:52:18.999Z,11.10
2023-05-12T07:54:47.539Z,10.70
2023-05-12T07:57:16.706Z,10.97
2023-05-12T07:59:46.780Z,10.17
2023-05-12T08:02:17.175Z,10.37
2023-05-12T08:04:45.994Z,9.00
2023-05-12T08:07:15.778Z,9.10
2023-05-12T08:09:44.555Z,10.13
2023-05-12T08:12:13.257Z,9.37
2023-05-12T08:14:42.731Z,8.73
2023-05-12T08:17:13.614Z,9.07
2023-05-12T08:19:45.676Z,9.40
2023-05-12T08:22:14.660Z,9.00
2023-05-12T08:24:43.931Z,8.50
2023-05-12T08:27:12.817Z,8.47
2023-05-12T08:29:41.805Z,8.13
2023-05-12T08:32:12.271Z,7.93
2023-05-12T08:34:41.157Z,8.07
2023-05-12T08:37:10.398Z,7.13
2023-05-12T08:39:39.166Z,7.03
2023-05-12T08:42:19.916Z,7.00
2023-05-12T08:44:48.928Z,6.97
2023-05-12T08:47:22.894Z,7.13
2023-05-12T08:49:59.625Z,6.93
2023-05-12T08:52:30.204Z,7.20
2023-05-12T08:55:00.782Z,7.13
2023-05-12T08:57:29.963Z,7.40
2023-05-12T09:00:00.151Z,6.68
2023-05-12T09:02:44.557Z,7.18
2023-05-12T09:05:17.759Z,6.75
2023-05-12T09:07:46.905Z,7.85
2023-05-12T09:10:32.657Z,6.32
2023-05-12T09:13:05.852Z,6.38
2023-05-12T09:15:40.166Z,5.82
2023-05-12T09:18:10.239Z,6.55
2023-05-12T09:20:39.003Z,6.35
2023-05-12T09:23:18.650Z,5.30
2023-05-12T09:25:48.296Z,5.07
2023-05-12T09:28:17.034Z,5.60
2023-05-12T09:30:45.680Z,5.50
2023-05-12T09:33:15.764Z,5.80
2023-05-12T09:35:45.569Z,5.22
2023-05-12T09:38:15.612Z,6.20
2023-05-12T09:40:44.261Z,5.37
2023-05-12T09:43:15.383Z,4.70
2023-05-12T09:45:47.512Z,4.97
2023-05-12T09:48:17.657Z,5.20
2023-05-12T09:50:48.534Z,5.30
2023-05-12T09:53:19.179Z,4.17
2023-05-12T09:55:49.451Z,3.37
2023-05-12T09:58:19.687Z,4.27
2023-05-12T10:03:24.992Z,4.33
2023-05-12T10:05:58.004Z,3.60
2023-05-12T10:08:31.198Z,4.67
2023-05-12T10:11:02.589Z,4.47
2023-05-12T10:13:32.197Z,4.57
2023-05-12T10:16:01.684Z,4.68
2023-05-12T10:18:34.475Z,4.68
2023-05-12T10:21:04.060Z,3.92
2023-05-12T10:23:34.034Z,4.25
2023-05-12T10:26:05.200Z,3.67
2023-05-12T10:28:33.989Z,3.72
2023-05-12T10:31:04.254Z,3.35
2023-05-12T10:33:34.735Z,3.00
2023-05-12T10:36:04.680Z,3.25
2023-05-12T10:38:37.567Z,2.67
2023-05-12T10:41:07.644Z,2.58
2023-05-12T10:43:41.416Z,2.22
2023-05-12T10:46:11.483Z,1.85
2023-05-12T10:48:52.813Z,2.85
2023-05-12T10:51:22.666Z,3.35
2023-05-12T10:53:58.259Z,2.92
2023-05-12T10:56:29.473Z,2.42
2023-05-12T10:59:14.985Z,1.95
2023-05-12T11:01:58.926Z,2.05
2023-05-12T11:04:41.595Z,2.25
2023-05-12T11:07:12.088Z,1.45
2023-05-12T11:09:55.537Z,2.20
2023-05-12T11:12:27.436Z,1.98
2023-05-12T11:14:56.392Z,1.58
2023-05-12T11:17:25.501Z,1.67
2023-05-12T11:19:56.424Z,1.80
2023-05-12T11:22:25.901Z,1.48
2023-05-12T11:24:54.659Z,2.00
2023-05-12T11:27:24.753Z,2.13
2023-05-12T11:30:01.196Z,2.20
2023-05-12T11:32:30.699Z,2.35
2023-05-12T11:35:11.862Z,2.15
2023-05-12T11:37:41.347Z,2.28
2023-05-12T11:40:17.428Z,1.70
2023-05-12T11:42:48.714Z,1.83
2023-05-12T11:45:22.734Z,2.03
2023-05-12T11:47:51.747Z,2.22
2023-05-12T11:50:26.359Z,2.10
2023-05-12T11:52:55.623Z,1.80
2023-05-12T11:55:25.878Z,1.67
2023-05-12T11:57:59.709Z,2.20
2023-05-12T12:00:30.291Z,2.28
2023-05-12T12:03:14.030Z,1.90
2023-05-12T12:05:46.388Z,1.90
2023-05-12T12:08:17.072Z,1.80
2023-05-12T12:10:47.016Z,1.80
2023-05-12T12:13:22.435Z,2.33
2023-05-12T12:15:51.507Z,2.00
2023-05-12T12:18:20.183Z,2.67
2023-05-12T12:20:50.253Z,1.85
2023-05-12T12:23:18.849Z,2.17
2023-05-12T12:25:47.446Z,1.73
2023-05-12T12:28:16.189Z,1.65
2023-05-12T12:30:44.926Z,1.35
2023-05-12T12:33:13.608Z,1.80
2023-05-12T12:35:42.264Z,1.88
2023-05-12T12:38:12.338Z,2.03
2023-05-12T12:40:40.975Z,2.25
2023-05-12T12:43:09.692Z,2.20
2023-05-12T12:45:38.417Z,1.60
2023-05-12T12:48:09.158Z,1.95
2023-05-12T12:50:38.502Z,2.20
2023-05-12T12:53:07.288Z,1.65
2023-05-12T12:55:37.325Z,2.40
2023-05-12T12:58:05.936Z,2.33
2023-05-12T13:00:34.777Z,2.42
2023-05-12T13:03:03.610Z,2.53
2023-05-12T13:05:32.565Z,1.88
2023-05-12T13:08:01.238Z,1.55
2023-05-12T13:10:29.832Z,1.90
2023-05-12T13:13:00.737Z,2.08
2023-05-12T13:15:29.501Z,1.95
2023-05-12T13:17:58.296Z,2.30
2023-05-12T13:20:26.979Z,2.72
2023-05-12T13:22:55.556Z,2.45
2023-05-12T13:25:24.335Z,2.45
2023-05-12T13:27:53.095Z,2.53
2023-05-12T13:30:25.081Z,2.40
2023-05-12T13:32:53.889Z,2.50
2023-05-12T13:35:23.060Z,2.85
2023-05-12T13:37:51.980Z,2.58
2023-05-12T13:40:20.639Z,2.92
2023-05-12T13:42:49.444Z,2.05
2023-05-12T13:45:19.528Z,2.20
2023-05-12T13:47:49.867Z,2.40
2023-05-12T13:50:18.571Z,2.60
2023-05-12T13:52:48.187Z,2.38
2023-05-12T13:55:21.242Z,2.47
2023-05-12T13:57:50.560Z,2.50
2023-05-12T14:00:19.712Z,2.63
2023-05-12T14:02:49.956Z,2.45
2023-05-12T14:05:19.141Z,2.08
2023-05-12T14:07:48.016Z,2.53
2023-05-12T14:10:16.958Z,2.03
2023-05-12T14:12:45.811Z,2.63
2023-05-12T14:15:26.489Z,1.90
2023-05-12T14:18:02.938Z,2.13
2023-05-12T14:20:32.164Z,2.70
2023-05-12T14:23:00.766Z,2.13
2023-05-12T14:25:30.759Z,2.58
2023-05-12T14:27:59.579Z,2.60
2023-05-12T14:30:28.295Z,2.83
2023-05-12T14:32:57.106Z,2.50
2023-05-12T14:35:27.957Z,3.08
2023-05-12T14:37:57.049Z,2.95
2023-05-12T14:40:26.844Z,3.03
2023-05-12T14:42:55.743Z,2.60
2023-05-12T14:45:26.462Z,2.92
2023-05-12T14:47:55.362Z,2.88
2023-05-12T14:50:24.185Z,3.10
2023-05-12T14:52:54.148Z,2.83
2023-05-12T14:55:23.000Z,2.80
2023-05-12T14:57:51.865Z,2.72
2023-05-12T15:00:21.368Z,2.38
2023-05-12T15:02:50.200Z,2.75
2023-05-12T15:05:19.100Z,2.63
2023-05-12T15:07:47.988Z,2.55
2023-05-12T15:10:18.073Z,2.80
2023-05-12T15:12:46.694Z,2.60
2023-05-12T15:15:15.540Z,2.90
2023-05-12T15:17:44.847Z,2.22
2023-05-12T15:20:13.733Z,2.88
2023-05-12T15:22:42.452Z,2.83
2023-05-12T15:25:11.759Z,2.35
2023-05-12T15:27:41.928Z,2.90
2023-05-12T15:30:12.208Z,2.70
2023-05-12T15:32:41.175Z,2.45
2023-05-12T15:35:10.582Z,2.58
2023-05-12T15:37:39.187Z,2.47
2023-05-12T15:40:09.398Z,2.70
2023-05-12T15:42:38.185Z,3.05
2023-05-12T15:45:10.087Z,2.60
2023-05-12T15:47:38.857Z,2.63
2023-05-12T15:50:10.403Z,3.15
2023-05-12T15:52:39.008Z,3.15
2023-05-12T15:55:08.154Z,3.77
2023-05-12T15:57:37.130Z,2.63
2023-05-12T16:00:08.813Z,2.77
2023-05-12T16:02:43.777Z,3.07
2023-05-12T16:05:12.578Z,3.00
2023-05-12T16:07:41.438Z,2.83
2023-05-12T16:10:10.851Z,2.90
2023-05-12T16:12:40.064Z,3.40
2023-05-12T16:15:11.444Z,3.93
2023-05-12T16:17:40.025Z,3.83
2023-05-12T16:20:10.332Z,4.20
2023-05-12T16:22:38.856Z,4.30
2023-05-12T16:25:07.933Z,4.57
2023-05-12T16:27:36.870Z,4.40
2023-05-12T16:30:06.329Z,3.93
2023-05-12T16:32:36.271Z,5.33
2023-05-12T16:35:05.454Z,5.03
2023-05-12T16:37:34.179Z,4.33
2023-05-12T16:40:02.747Z,4.47
2023-05-12T16:42:31.506Z,4.73
2023-05-12T16:45:00.262Z,4.00
2023-05-12T16:47:29.619Z,3.67
2023-05-12T16:49:59.902Z,3.80
2023-05-12T16:52:28.580Z,3.50
2023-05-12T16:54:57.491Z,3.97
2023-05-12T16:57:26.055Z,3.80
2023-05-12T16:59:54.699Z,4.03
2023-05-12T17:02:23.575Z,4.23
2023-05-12T17:04:52.490Z,4.37
2023-05-12T17:07:23.247Z,4.07
2023-05-12T17:09:51.797Z,4.27
2023-05-12T17:12:20.719Z,3.63
2023-05-12T17:14:59.470Z,4.37
2023-05-12T17:17:35.502Z,4.00
2023-05-12T17:20:05.995Z,4.23
2023-05-12T17:22:41.372Z,4.70
2023-05-12T17:25:10.791Z,5.33
2023-05-12T17:27:39.349Z,4.13
2023-05-12T17:30:09.302Z,4.23
2023-05-12T17:32:38.099Z,4.90
2023-05-12T17:35:08.024Z,5.27
2023-05-12T17:37:39.461Z,4.87
2023-05-12T17:40:09.452Z,5.13
2023-05-12T17:42:38.010Z,5.17
2023-05-12T17:45:07.792Z,5.17
2023-05-12T17:47:36.451Z,4.10
2023-05-12T17:50:05.833Z,5.00
2023-05-12T17:52:34.439Z,4.87
2023-05-12T17:55:04.979Z,5.47
2023-05-12T17:57:34.182Z,6.27
2023-05-12T18:00:09.431Z,5.30
2023-05-12T18:02:44.094Z,5.10
2023-05-12T18:05:13.002Z,5.63
2023-05-12T18:07:41.748Z,5.33
2023-05-12T18:10:12.553Z,5.50
2023-05-12T18:12:41.680Z,5.63
2023-05-12T18:15:11.127Z,5.17
2023-05-12T18:17:39.860Z,4.93
2023-05-12T18:20:09.829Z,4.60
2023-05-12T18:22:38.562Z,5.17
2023-05-12T18:25:09.833Z,4.87
2023-05-12T18:27:39.833Z,5.13
2023-05-12T18:30:09.495Z,5.03
2023-05-12T18:32:38.969Z,5.00
2023-05-12T18:35:08.792Z,4.43
2023-05-12T18:37:37.473Z,4.23
2023-05-12T18:40:07.150Z,5.17
2023-05-12T18:42:36.059Z,6.23
2023-05-12T18:45:07.561Z,5.37
2023-05-12T18:47:36.391Z,5.00
2023-05-12T18:50:05.371Z,4.90
2023-05-12T18:52:33.934Z,5.10
2023-05-12T18:55:02.515Z,5.63
2023-05-12T18:57:31.398Z,5.23
2023-05-12T18:59:59.973Z,4.60
2023-05-12T19:02:30.501Z,5.47
2023-05-12T19:04:59.146Z,5.13
2023-05-12T19:07:27.684Z,6.20
2023-05-12T19:09:56.869Z,5.60
2023-05-12T19:12:25.664Z,5.80
2023-05-12T19:14:54.261Z,6.03
2023-05-12T19:17:22.918Z,6.03
2023-05-12T19:19:53.048Z,6.63
2023-05-12T19:22:23.390Z,6.07
2023-05-12T19:24:52.138Z,6.53
2023-05-12T19:27:20.671Z,5.73
2023-05-12T19:29:49.672Z,5.83
2023-05-12T19:32:18.219Z,5.83
2023-05-12T19:34:46.860Z,5.90
2023-05-12T19:37:16.830Z,5.70
2023-05-12T19:39:45.369Z,5.53
2023-05-12T19:42:13.958Z,5.30
2023-05-12T19:44:42.573Z,4.37
2023-05-12T19:47:12.516Z,5.30
2023-05-12T19:49:41.167Z,6.00
2023-05-12T19:52:09.705Z,6.57
2023-05-12T19:54:39.789Z,5.33
2023-05-12T19:57:08.574Z,7.00
2023-05-12T19:59:37.165Z,5.83
2023-05-12T20:02:06.873Z,6.50
2023-05-12T20:04:35.488Z,6.37
2023-05-12T20:07:04.192Z,7.30
2023-05-12T20:09:32.810Z,7.07
2023-05-12T20:12:02.794Z,6.43
2023-05-12T20:14:31.658Z,5.53
2023-05-12T20:17:05.488Z,5.83
2023-05-12T20:19:34.598Z,5.37
2023-05-12T20:22:03.313Z,6.00
2023-05-12T20:24:31.851Z,5.87
2023-05-12T20:27:00.407Z,5.40
2023-05-12T20:29:30.428Z,5.53
2023-05-12T20:31:59.039Z,5.17
2023-05-12T20:34:27.625Z,5.60
2023-05-12T20:36:56.207Z,4.97
2023-05-12T20:39:24.800Z,5.20
2023-05-12T20:41:53.594Z,5.47
2023-05-12T20:44:22.402Z,5.13
2023-05-12T20:46:52.580Z,5.43
2023-05-12T20:49:21.487Z,5.93
2023-05-12T20:51:50.258Z,5.30
2023-05-12T20:54:18.819Z,5.33
2023-05-12T20:56:47.398Z,4.87
2023-05-12T20:59:15.952Z,5.50
2023-05-12T21:01:44.497Z,5.93
2023-05-12T21:04:14.460Z,6.70
2023-05-12T21:06:43.091Z,6.00
2023-05-12T21:09:11.635Z,5.90
2023-05-12T21:11:40.176Z,5.73
2023-05-12T21:14:08.845Z,6.17
2023-05-12T21:16:37.459Z,5.60
2023-05-12T21:19:06.577Z,5.70
2023-05-12T21:21:36.783Z,6.40
2023-05-12T21:24:05.710Z,5.67
2023-05-12T21:26:34.254Z,5.97
2023-05-12T21:29:03.710Z,5.73
2023-05-12T21:31:32.472Z,5.50
2023-05-12T21:34:01.119Z,6.00
2023-05-12T21:36:29.910Z,5.67
2023-05-12T21:38:59.923Z,6.50
2023-05-12T21:41:28.493Z,6.00
2023-05-12T21:43:57.067Z,6.67
2023-05-12T21:46:25.711Z,6.13
2023-05-12T21:48:54.267Z,5.57
2023-05-12T21:51:22.775Z,5.33
2023-05-12T21:53:51.520Z,6.07
2023-05-12T21:56:21.909Z,6.30
2023-05-12T21:58:50.721Z,5.13
2023-05-12T22:01:19.949Z,6.20
2023-05-12T22:03:48.648Z,5.37
2023-05-12T22:06:17.321Z,6.03
2023-05-12T22:08:45.885Z,5.70
2023-05-12T22:11:14.781Z,5.57
2023-05-12T22:13:44.705Z,5.37
2023-05-12T22:16:13.298Z,5.37
2023-05-12T22:18:43.505Z,5.83
2023-05-12T22:21:12.525Z,5.87
2023-05-12T22:23:42.156Z,5.73
2023-05-12T22:26:10.996Z,6.17
2023-05-12T22:28:39.580Z,5.57
2023-05-12T22:31:09.674Z,4.97
2023-05-12T22:33:38.223Z,5.27
2023-05-12T22:36:07.306Z,5.87
2023-05-12T22:38:35.885Z,5.27
2023-05-12T22:41:04.468Z,4.77
2023-05-12T22:43:32.993Z,4.77
2023-05-12T22:46:01.571Z,4.70
2023-05-12T22:48:35.954Z,4.47
2023-05-12T22:51:07.482Z,4.37
2023-05-12T22:53:36.803Z,3.83
2023-05-12T22:56:05.578Z,3.97
2023-05-12T22:58:34.284Z,4.20
2023-05-12T23:01:03.046Z,3.93
2023-05-12T23:03:33.574Z,3.67
2023-05-12T23:06:02.162Z,3.20
2023-05-12T23:08:30.867Z,3.80
2023-05-12T23:10:59.401Z,3.47
2023-05-12T23:13:28.071Z,4.10
2023-05-12T23:15:56.612Z,3.47
2023-05-12T23:18:25.270Z,3.60
2023-05-12T23:20:55.266Z,3.60
2023-05-12T23:23:23.981Z,3.53
2023-05-12T23:25:52.496Z,3.90
2023-05-12T23:28:21.001Z,3.43
2023-05-12T23:30:49.493Z,3.67
2023-05-12T23:33:18.181Z,3.80
2023-05-12T23:35:46.788Z,3.57
2023-05-12T23:38:16.809Z,4.07
2023-05-12T23:40:45.389Z,3.10
2023-05-12T23:43:13.931Z,3.90
2023-05-12T23:45:42.660Z,3.70
2023-05-12T23:48:11.245Z,3.37
2023-05-12T23:50:39.904Z,3.87
2023-05-12T23:53:08.484Z,4.07
2023-05-12T23:55:39.444Z,4.00
2023-05-12T23:58:10.601Z,4.40
